Time;durP1;ratioP1;P1;durP2;ratioP2;P2;SDS_P1;SDS_P2;PMS_P1;PMS_P2;Temp;Humidity;BMP_temperature;BMP_pressure;BME280_temperature;BME280_humidity;BME280_pressure;Samples;Min_cycle;Max_cycle;Signal;HPM_P1;HPM_P2
2021/09/05 00:00:05;;;;;;;6.85;3.20;;;;;;;16.47;60.14;100075.28;4415702;32;34007;-85
2021/09/05 00:02:37;;;;;;;6.07;3.08;;;;;;;16.64;59.53;100079.53;4429982;32;33385;-84
2021/09/05 00:05:06;;;;;;;6.95;3.53;;;;;;;16.75;59.08;100081.53;4411749;32;34442;-84
2021/09/05 00:07:35;;;;;;;7.25;3.50;;;;;;;16.60;59.50;100076.22;4427107;32;33414;-84
2021/09/05 00:10:02;;;;;;;8.18;3.85;;;;;;;16.64;59.44;100085.72;4398027;32;32899;-84
2021/09/05 00:12:30;;;;;;;5.25;3.70;;;;;;;16.77;59.06;100082.31;4416516;32;34070;-84
2021/09/05 00:14:58;;;;;;;5.95;4.20;;;;;;;16.73;59.12;100080.78;4425913;32;33909;-84
2021/09/05 00:17:26;;;;;;;9.23;3.85;;;;;;;16.78;58.98;100087.53;4415561;32;34026;-84
2021/09/05 00:19:54;;;;;;;5.43;3.72;;;;;;;16.63;59.24;100088.50;4418797;32;33245;-84
2021/09/05 00:22:22;;;;;;;5.68;3.17;;;;;;;16.65;59.19;100087.44;4417271;32;34376;-84
2021/09/05 00:24:50;;;;;;;7.30;3.30;;;;;;;16.10;60.50;100144.22;4409681;32;34234;-84
2021/09/05 00:27:17;;;;;;;5.05;3.40;;;;;;;15.86;61.90;100127.91;4415329;32;33172;-84
2021/09/05 00:29:45;;;;;;;5.43;2.90;;;;;;;15.99;61.17;100122.69;4416827;32;33512;-84
2021/09/05 00:32:13;;;;;;;6.25;3.55;;;;;;;15.95;61.60;100122.94;4399174;32;33411;-84
2021/09/05 00:34:41;;;;;;;6.62;3.10;;;;;;;15.79;62.35;100112.38;4420968;32;33919;-84
2021/09/05 00:37:16;;;;;;;4.93;2.70;;;;;;;15.77;62.32;100120.47;4411213;32;33052;-84
2021/09/05 00:39:44;;;;;;;4.35;2.60;;;;;;;16.10;60.99;100117.56;4425166;32;34655;-84
2021/09/05 00:42:11;;;;;;;3.95;2.60;;;;;;;16.33;60.15;100117.94;4421688;32;34107;-84
2021/09/05 00:44:39;;;;;;;4.93;2.75;;;;;;;16.41;59.52;100126.31;4420564;32;35353;-84
2021/09/05 00:47:07;;;;;;;4.97;3.22;;;;;;;16.39;59.79;100128.22;4431981;32;33039;-84
2021/09/05 00:49:34;;;;;;;4.60;3.40;;;;;;;16.69;59.35;100129.91;4417072;32;32879;-84
2021/09/05 00:52:02;;;;;;;9.82;3.92;;;;;;;17.04;58.40;100135.66;4409413;32;34486;-84
2021/09/05 00:54:43;;;;;;;6.85;3.83;;;;;;;17.30;57.78;100133.97;4422201;32;34918;-84
2021/09/05 00:57:15;;;;;;;8.07;3.42;;;;;;;17.12;58.64;100144.03;4426392;32;33746;-84
2021/09/05 00:59:48;;;;;;;6.28;3.75;;;;;;;17.36;57.77;100141.56;4425663;32;33234;-84
2021/09/05 01:02:17;;;;;;;11.50;4.03;;;;;;;17.52;57.35;100136.03;4422068;32;33326;-83
2021/09/05 01:04:45;;;;;;;7.37;3.80;;;;;;;17.20;58.20;100138.19;4421391;32;34171;-83
2021/09/05 01:07:14;;;;;;;8.15;4.60;;;;;;;17.06;58.82;100142.63;4409282;32;33990;-83
2021/09/05 01:09:41;;;;;;;7.55;4.85;;;;;;;17.18;58.53;100148.09;4419296;32;33142;-83
2021/09/05 01:12:11;;;;;;;6.80;4.80;;;;;;;17.06;59.30;100147.94;4426686;32;33792;-83
2021/09/05 01:14:38;;;;;;;7.07;4.43;;;;;;;17.32;58.51;100148.03;4421708;32;34490;-83
2021/09/05 01:17:10;;;;;;;6.12;4.05;;;;;;;17.54;57.86;100142.16;4415168;32;33199;-86
2021/09/05 01:19:39;;;;;;;7.07;4.90;;;;;;;17.38;58.28;100151.19;4415590;32;34887;-85
2021/09/05 01:22:07;;;;;;;8.40;4.57;;;;;;;17.56;57.78;100145.56;4421056;32;35706;-86
2021/09/05 01:24:42;;;;;;;10.73;5.12;;;;;;;17.25;59.20;100154.75;4426367;32;33563;-85
2021/09/05 01:27:11;;;;;;;7.55;4.55;;;;;;;17.61;57.94;100151.44;4424394;32;32183;-85
2021/09/05 01:29:42;;;;;;;6.43;5.00;;;;;;;17.54;58.24;100151.00;4419721;32;33641;-85
2021/09/05 01:32:36;;;;;;;7.45;5.07;;;;;;;17.13;59.45;100167.94;4430745;32;32621;-85
2021/09/05 01:35:06;;;;;;;8.07;5.60;;;;;;;17.24;59.68;100161.06;4421003;32;33560;-85
2021/09/05 01:37:38;;;;;;;10.55;6.78;;;;;;;17.24;59.45;100163.72;4415858;32;32632;-85
2021/09/05 01:40:08;;;;;;;8.25;5.32;;;;;;;17.52;58.77;100168.06;4420100;32;33322;-85
2021/09/05 01:42:36;;;;;;;8.70;5.20;;;;;;;17.41;58.72;100164.31;4399876;32;34054;-85
2021/09/05 01:45:05;;;;;;;8.07;5.25;;;;;;;17.26;59.52;100169.81;4412706;32;33996;-85
2021/09/05 01:47:37;;;;;;;6.57;4.22;;;;;;;17.31;59.70;100173.88;4429437;32;33116;-85
2021/09/05 01:50:08;;;;;;;9.00;4.50;;;;;;;17.55;58.41;100173.22;4407712;32;34179;-85
2021/09/05 01:52:38;;;;;;;6.12;4.53;;;;;;;17.50;58.49;100178.88;4415980;32;33626;-85
2021/09/05 01:55:07;;;;;;;7.00;4.30;;;;;;;17.21;59.40;100174.59;4423074;32;34705;-85
2021/09/05 01:57:37;;;;;;;7.68;5.45;;;;;;;17.00;59.91;100177.72;4408274;32;32489;-85
2021/09/05 02:00:09;;;;;;;7.87;5.00;;;;;;;16.74;61.28;100183.81;4421027;32;34095;-85
2021/09/05 02:02:43;;;;;;;9.43;5.10;;;;;;;17.04;59.68;100181.88;4416862;32;34445;-85
2021/09/05 02:05:13;;;;;;;10.68;5.78;;;;;;;16.69;61.46;100183.22;4409101;32;33396;-85
2021/09/05 02:07:42;;;;;;;8.40;5.87;;;;;;;16.78;61.02;100177.34;4396317;32;33378;-85
2021/09/05 02:10:10;;;;;;;10.75;5.82;;;;;;;16.63;61.75;100179.16;4425916;32;34244;-83
2021/09/05 02:12:44;;;;;;;12.32;6.53;;;;;;;16.29;63.34;100181.25;4426447;32;33662;-84
2021/09/05 02:15:13;;;;;;;9.10;6.07;;;;;;;16.35;63.36;100186.19;4426572;32;33467;-84
2021/09/05 02:17:43;;;;;;;12.07;6.80;;;;;;;16.67;62.23;100186.00;4425082;32;33084;-84
2021/09/05 02:20:12;;;;;;;12.02;7.22;;;;;;;16.42;63.04;100188.47;4421220;32;34304;-84
2021/09/05 02:22:41;;;;;;;10.00;6.72;;;;;;;16.46;62.83;100193.50;4412350;32;34989;-84
2021/09/05 02:25:10;;;;;;;12.60;6.68;;;;;;;16.67;62.52;100190.47;4414052;32;33171;-83
2021/09/05 02:27:42;;;;;;;11.70;7.03;;;;;;;16.20;64.03;100191.59;4411114;32;32869;-83
2021/09/05 02:30:12;;;;;;;10.23;6.78;;;;;;;16.14;64.58;100198.12;4427771;32;33618;-83
2021/09/05 02:32:42;;;;;;;14.73;7.57;;;;;;;16.68;62.61;100192.19;4423530;32;34507;-83
2021/09/05 02:35:11;;;;;;;11.85;7.37;;;;;;;16.65;62.69;100199.41;4407307;32;34165;-82
2021/09/05 02:37:41;;;;;;;11.23;6.10;;;;;;;16.52;63.46;100202.94;4415744;32;33477;-83
2021/09/05 02:40:10;;;;;;;10.48;7.03;;;;;;;16.32;63.73;100206.81;4401772;32;33879;-82
2021/09/05 02:42:40;;;;;;;9.90;6.65;;;;;;;16.45;63.34;100202.47;4431373;32;33683;-82
2021/09/05 02:45:10;;;;;;;11.35;7.50;;;;;;;16.50;63.30;100199.50;4409113;32;34557;-82
2021/09/05 02:47:39;;;;;;;10.40;7.28;;;;;;;16.55;62.92;100203.59;4417461;32;34066;-82
2021/09/05 02:50:10;;;;;;;10.80;6.72;;;;;;;16.74;62.32;100202.50;4432810;32;33209;-83
2021/09/05 02:52:41;;;;;;;10.52;6.90;;;;;;;16.49;62.72;100197.81;4432367;32;35026;-83
2021/09/05 02:55:09;;;;;;;12.05;7.00;;;;;;;16.67;63.11;100203.81;4408797;32;33204;-82
2021/09/05 02:57:42;;;;;;;11.10;7.35;;;;;;;16.35;63.92;100201.31;4412107;32;33794;-82
2021/09/05 03:00:11;;;;;;;14.52;8.75;;;;;;;16.53;63.59;100199.34;4406445;32;32440;-83
2021/09/05 03:02:45;;;;;;;9.88;7.43;;;;;;;16.47;63.75;100199.69;4404901;32;32778;-83
2021/09/05 03:05:15;;;;;;;13.07;7.05;;;;;;;16.54;63.71;100204.56;4398656;32;33880;-83
2021/09/05 03:07:46;;;;;;;14.70;6.90;;;;;;;16.66;63.11;100194.94;4388706;32;32825;-83
2021/09/05 03:10:15;;;;;;;12.90;7.78;;;;;;;16.78;62.52;100204.03;4414381;32;33673;-84
2021/09/05 03:12:44;;;;;;;14.95;7.82;;;;;;;16.51;63.56;100206.56;4398073;32;35394;-83
2021/09/05 03:15:14;;;;;;;10.77;7.80;;;;;;;16.91;62.11;100199.63;4402811;32;34932;-84
2021/09/05 03:17:43;;;;;;;11.48;7.35;;;;;;;16.49;63.19;100204.00;4400581;32;33404;-83
2021/09/05 03:20:13;;;;;;;10.63;6.87;;;;;;;16.65;62.94;100212.75;4409914;32;34614;-83
2021/09/05 03:22:42;;;;;;;13.80;7.62;;;;;;;17.08;61.94;100218.06;4407752;32;34883;-83
2021/09/05 03:25:10;;;;;;;10.80;7.47;;;;;;;16.73;62.92;100211.44;4418210;32;34456;-84
2021/09/05 03:27:38;;;;;;;12.02;6.78;;;;;;;16.74;62.34;100215.81;4411252;32;33162;-83
2021/09/05 03:30:10;;;;;;;12.05;6.93;;;;;;;16.86;62.25;100217.75;4406319;32;33920;-84
2021/09/05 03:32:39;;;;;;;11.57;7.18;;;;;;;16.95;61.79;100221.59;4386712;32;33328;-83
2021/09/05 03:35:08;;;;;;;13.98;7.70;;;;;;;16.76;62.15;100219.25;4415652;32;34465;-83
2021/09/05 03:37:37;;;;;;;15.00;8.05;;;;;;;16.81;62.41;100214.50;4411603;32;32757;-83
2021/09/05 03:40:07;;;;;;;12.82;8.23;;;;;;;16.98;61.71;100222.28;4387499;32;33928;-83
2021/09/05 03:42:36;;;;;;;11.10;7.50;;;;;;;17.05;60.84;100218.28;4412398;32;33962;-84
2021/09/05 03:45:06;;;;;;;13.93;8.05;;;;;;;16.96;61.56;100218.00;4389232;32;34277;-84
2021/09/05 03:47:36;;;;;;;12.02;7.97;;;;;;;16.92;61.41;100216.50;4403453;32;32741;-85
2021/09/05 03:50:05;;;;;;;11.77;7.82;;;;;;;17.18;60.98;100214.81;4393516;32;33255;-84
2021/09/05 03:52:33;;;;;;;11.95;7.25;;;;;;;16.92;61.21;100217.34;4386627;32;33470;-84
2021/09/05 03:55:03;;;;;;;13.62;8.35;;;;;;;16.84;61.70;100223.16;4404663;32;33771;-84
2021/09/05 03:57:31;;;;;;;13.68;7.90;;;;;;;16.95;61.62;100225.16;4398095;32;32696;-84
2021/09/05 03:59:59;;;;;;;12.20;8.15;;;;;;;17.14;61.04;100236.38;4387418;32;34242;-84
2021/09/05 04:02:27;;;;;;;10.75;7.82;;;;;;;17.15;60.93;100229.22;4400244;32;34622;-84
2021/09/05 04:04:55;;;;;;;12.93;7.95;;;;;;;17.20;60.44;100242.25;4418490;32;33728;-84
2021/09/05 04:07:23;;;;;;;14.75;8.35;;;;;;;17.23;60.37;100239.38;4414553;32;33249;-84
2021/09/05 04:10:09;;;;;;;10.43;7.70;;;;;;;17.17;60.63;100237.13;4399763;32;33128;-84
2021/09/05 04:12:39;;;;;;;12.50;8.68;;;;;;;17.21;60.46;100238.62;4400994;32;33528;-84
2021/09/05 04:15:07;;;;;;;10.88;7.53;;;;;;;17.21;60.76;100243.97;4405484;32;33687;-84
2021/09/05 04:17:35;;;;;;;14.43;7.93;;;;;;;17.34;59.78;100247.56;4402584;32;32628;-84
2021/09/05 04:20:05;;;;;;;9.77;7.30;;;;;;;17.16;60.52;100249.59;4423200;32;34904;-83
2021/09/05 04:22:32;;;;;;;11.10;7.55;;;;;;;17.39;59.67;100248.97;4411524;32;34933;-84
2021/09/05 04:25:01;;;;;;;12.02;7.85;;;;;;;17.50;59.23;100244.75;4415130;32;33048;-83
2021/09/05 04:27:29;;;;;;;9.93;7.10;;;;;;;17.46;59.56;100248.56;4415323;32;33946;-84
2021/09/05 04:29:57;;;;;;;10.68;7.40;;;;;;;17.61;58.90;100247.56;4428388;32;33652;-84
2021/09/05 04:32:25;;;;;;;11.43;7.65;;;;;;;17.77;58.23;100264.34;4418610;32;34839;-84
2021/09/05 04:34:53;;;;;;;10.60;8.18;;;;;;;17.13;60.77;100268.47;4416398;32;33963;-85
2021/09/05 04:37:20;;;;;;;13.82;8.20;;;;;;;17.74;58.62;100269.03;4397970;32;33999;-84
2021/09/05 04:39:50;;;;;;;13.07;7.47;;;;;;;17.74;58.64;100261.00;4404529;32;33931;-84
2021/09/05 04:42:18;;;;;;;16.00;8.40;;;;;;;17.66;58.81;100267.69;4425488;32;34128;-84
2021/09/05 04:44:45;;;;;;;12.43;8.05;;;;;;;17.75;58.32;100260.91;4429083;32;33773;-84
2021/09/05 04:47:13;;;;;;;15.57;8.75;;;;;;;17.96;57.87;100258.63;4421565;32;33291;-84
2021/09/05 04:49:41;;;;;;;13.10;7.60;;;;;;;17.83;58.31;100269.28;4426094;32;34449;-84
2021/09/05 04:52:11;;;;;;;13.07;7.78;;;;;;;18.00;57.75;100264.63;4420573;32;34408;-84
2021/09/05 04:54:38;;;;;;;15.77;7.47;;;;;;;18.01;57.59;100269.00;4406900;32;32829;-84
2021/09/05 04:57:06;;;;;;;10.75;7.28;;;;;;;18.21;56.62;100276.53;4417474;32;33815;-84
2021/09/05 04:59:34;;;;;;;14.13;8.65;;;;;;;18.41;56.19;100268.00;4406005;32;33155;-84
2021/09/05 05:02:01;;;;;;;10.95;7.25;;;;;;;18.61;55.87;100277.34;4417032;32;34125;-84
2021/09/05 05:04:30;;;;;;;15.57;7.80;;;;;;;18.67;55.55;100274.22;4429528;32;34637;-85
2021/09/05 05:06:57;;;;;;;11.63;6.87;;;;;;;18.72;55.30;100273.09;4419930;32;33915;-84
2021/09/05 05:09:25;;;;;;;12.00;7.68;;;;;;;18.38;56.45;100286.09;4410392;32;33365;-84
2021/09/05 05:11:53;;;;;;;9.98;6.90;;;;;;;18.67;55.52;100282.25;4415387;32;35804;-84
2021/09/05 05:14:20;;;;;;;12.77;7.12;;;;;;;18.51;56.14;100292.28;4420369;32;33645;-83
2021/09/05 05:16:48;;;;;;;12.63;7.78;;;;;;;18.20;57.18;100293.53;4422381;32;33618;-84
2021/09/05 05:19:16;;;;;;;13.73;7.35;;;;;;;18.62;55.95;100291.56;4423295;32;34345;-84
2021/09/05 05:21:43;;;;;;;10.85;6.97;;;;;;;18.84;55.42;100296.28;4429171;32;35119;-84
2021/09/05 05:24:11;;;;;;;12.85;7.65;;;;;;;19.15;54.26;100292.31;4399728;32;34301;-84
2021/09/05 05:26:38;;;;;;;9.55;6.95;;;;;;;19.04;54.44;100293.09;4413882;32;33319;-85
2021/09/05 05:29:06;;;;;;;11.68;8.30;;;;;;;19.26;53.71;100292.38;4427543;32;33267;-84
2021/09/05 05:31:34;;;;;;;10.25;6.75;;;;;;;19.09;53.50;100298.97;4415381;32;33571;-84
2021/09/05 05:34:02;;;;;;;12.80;7.68;;;;;;;19.18;54.14;100297.47;4432432;32;33910;-84
2021/09/05 05:36:29;;;;;;;8.88;6.55;;;;;;;19.27;53.71;100302.13;4431905;32;33939;-84
2021/09/05 05:38:57;;;;;;;13.88;8.52;;;;;;;19.57;53.43;100303.56;4407203;32;33276;-85
2021/09/05 05:41:24;;;;;;;12.07;6.82;;;;;;;19.26;54.02;100299.56;4414996;32;34198;-84
2021/09/05 05:43:52;;;;;;;10.82;6.20;;;;;;;19.42;53.11;100306.41;4424210;32;34884;-84
2021/09/05 05:46:20;;;;;;;11.68;7.40;;;;;;;19.22;53.12;100306.09;4428636;32;33435;-84
2021/09/05 05:48:47;;;;;;;12.05;6.80;;;;;;;19.22;53.64;100308.78;4423801;32;34443;-84
2021/09/05 05:51:15;;;;;;;11.02;6.97;;;;;;;19.52;52.42;100311.94;4415741;32;34003;-84
2021/09/05 05:53:42;;;;;;;11.48;6.93;;;;;;;19.56;52.38;100310.75;4415244;32;32837;-84
2021/09/05 05:56:10;;;;;;;9.52;6.05;;;;;;;19.73;51.78;100314.03;4411772;32;33911;-84
2021/09/05 05:58:38;;;;;;;13.05;6.55;;;;;;;19.35;51.56;100310.47;4430730;32;33889;-85
2021/09/05 06:01:09;;;;;;;12.85;5.90;;;;;;;19.51;51.64;100320.91;4410358;32;33821;-84
2021/09/05 06:03:39;;;;;;;12.50;7.10;;;;;;;19.86;49.63;100310.34;4416507;32;33308;-84
2021/09/05 06:06:07;;;;;;;11.02;6.95;;;;;;;19.87;50.45;100316.56;4421915;32;32349;-85
2021/09/05 06:08:34;;;;;;;12.10;5.97;;;;;;;19.63;50.29;100325.44;4417950;32;34488;-85
2021/09/05 06:11:03;;;;;;;8.05;5.78;;;;;;;19.62;50.07;100321.03;4431660;32;34122;-85
2021/09/05 06:13:31;;;;;;;8.90;6.10;;;;;;;19.76;50.42;100324.53;4411685;32;33850;-85
2021/09/05 06:15:59;;;;;;;13.82;5.60;;;;;;;19.72;49.72;100326.59;4415033;32;32349;-85
2021/09/05 06:18:27;;;;;;;8.20;5.78;;;;;;;19.96;49.91;100331.97;4423434;32;34541;-84
2021/09/05 06:20:54;;;;;;;12.15;6.03;;;;;;;19.64;49.69;100339.69;4421055;32;34597;-84
2021/09/05 06:23:22;;;;;;;10.63;5.90;;;;;;;19.97;48.71;100336.34;4433139;32;33900;-84
2021/09/05 06:25:50;;;;;;;8.80;5.93;;;;;;;20.25;48.44;100332.44;4398941;32;31915;-84
2021/09/05 06:28:17;;;;;;;9.52;6.25;;;;;;;19.88;49.42;100340.56;4429638;32;34030;-83
2021/09/05 06:30:44;;;;;;;10.95;5.90;;;;;;;20.11;48.40;100344.22;4408785;32;34291;-84
2021/09/05 06:33:12;;;;;;;8.50;5.72;;;;;;;20.35;47.71;100346.03;4423541;32;34101;-84
2021/09/05 06:35:40;;;;;;;10.27;6.07;;;;;;;20.43;47.65;100349.00;4419456;32;34458;-84
2021/09/05 06:38:08;;;;;;;10.25;5.65;;;;;;;20.14;47.25;100351.19;4423981;32;34723;-84
2021/09/05 06:40:36;;;;;;;7.40;5.37;;;;;;;20.59;47.21;100341.50;4422808;32;34895;-84
2021/09/05 06:43:03;;;;;;;9.93;5.90;;;;;;;20.62;46.99;100352.00;4422345;32;35454;-84
2021/09/05 06:45:31;;;;;;;8.13;5.57;;;;;;;20.50;46.64;100347.56;4429000;32;33956;-84
2021/09/05 06:47:59;;;;;;;7.22;5.43;;;;;;;20.53;46.24;100349.16;4394302;32;34312;-84
2021/09/05 06:50:27;;;;;;;11.27;5.93;;;;;;;20.86;45.64;100343.88;4435113;32;34229;-84
2021/09/05 06:52:54;;;;;;;6.80;5.00;;;;;;;20.92;45.00;100348.75;4414620;32;33476;-84
2021/09/05 06:55:22;;;;;;;7.68;4.62;;;;;;;20.87;45.49;100348.28;4420279;32;32519;-84
2021/09/05 06:57:50;;;;;;;10.18;5.90;;;;;;;21.06;45.07;100349.53;4422336;32;33857;-82
2021/09/05 07:00:17;;;;;;;8.68;5.45;;;;;;;21.10;44.33;100357.22;4422317;32;34127;-82
2021/09/05 07:02:45;;;;;;;9.38;5.65;;;;;;;21.26;43.97;100356.00;4419341;32;33154;-82
2021/09/05 07:05:13;;;;;;;7.10;4.93;;;;;;;21.32;43.99;100360.94;4417897;32;32678;-82
2021/09/05 07:07:43;;;;;;;6.10;4.30;;;;;;;21.51;43.19;100350.41;4418503;32;33842;-82
2021/09/05 07:10:12;;;;;;;6.78;4.82;;;;;;;21.43;41.42;100364.47;4423956;32;33712;-82
2021/09/05 07:12:42;;;;;;;6.15;3.85;;;;;;;20.67;42.55;100371.28;4428276;32;34207;-82
2021/09/05 07:15:09;;;;;;;6.87;4.37;;;;;;;20.80;42.02;100365.00;4424643;32;33391;-82
2021/09/05 07:17:38;;;;;;;6.75;3.78;;;;;;;20.97;41.99;100367.19;4413960;32;34506;-82
2021/09/05 07:20:06;;;;;;;7.97;3.72;;;;;;;20.84;41.47;100372.69;4416859;32;33738;-81
2021/09/05 07:22:34;;;;;;;4.68;3.60;;;;;;;20.99;40.81;100370.62;4427527;32;34358;-82
2021/09/05 07:25:09;;;;;;;7.57;3.67;;;;;;;21.14;40.32;100373.94;4412150;32;33947;-82
2021/09/05 07:27:37;;;;;;;3.97;3.10;;;;;;;21.27;37.91;100371.12;4420132;32;33880;-82
2021/09/05 07:30:07;;;;;;;5.50;3.78;;;;;;;21.65;37.06;100384.25;4411776;32;33468;-83
2021/09/05 07:32:36;;;;;;;5.82;3.05;;;;;;;21.56;36.69;100375.09;4418585;32;33828;-82
2021/09/05 07:35:05;;;;;;;3.83;3.03;;;;;;;21.68;37.21;100379.44;4435704;32;33174;-83
2021/09/05 07:37:33;;;;;;;8.00;3.22;;;;;;;21.79;36.08;100372.34;4422233;32;33634;-83
2021/09/05 07:40:01;;;;;;;5.47;3.47;;;;;;;21.92;36.11;100387.34;4436330;32;33717;-83
2021/09/05 07:42:30;;;;;;;7.05;3.62;;;;;;;22.07;35.71;100395.12;4427795;32;34589;-81
2021/09/05 07:44:58;;;;;;;4.55;3.33;;;;;;;21.94;35.88;100389.94;4421103;32;31991;-82
2021/09/05 07:47:26;;;;;;;5.05;3.15;;;;;;;21.74;36.28;100394.22;4425527;32;33902;-81
2021/09/05 07:49:53;;;;;;;6.35;3.12;;;;;;;21.97;36.15;100400.41;4426331;32;34140;-81
2021/09/05 07:52:21;;;;;;;5.20;3.47;;;;;;;22.24;35.40;100403.56;4429760;32;33591;-81
2021/09/05 07:54:49;;;;;;;6.30;3.50;;;;;;;22.16;35.04;100403.34;4425264;32;33435;-81
2021/09/05 07:57:16;;;;;;;5.50;3.35;;;;;;;22.61;35.57;100405.88;4404807;32;34645;-82
2021/09/05 07:59:44;;;;;;;5.70;3.55;;;;;;;22.34;34.78;100421.62;4388295;32;33371;-81
2021/09/05 08:02:11;;;;;;;4.62;3.25;;;;;;;22.35;35.14;100409.87;4417951;32;33991;-81
2021/09/05 08:04:39;;;;;;;4.80;3.53;;;;;;;22.64;34.92;100405.59;4432459;32;33814;-82
2021/09/05 08:07:07;;;;;;;3.78;2.95;;;;;;;22.59;35.43;100410.53;4426482;32;33594;-84
2021/09/05 08:09:34;;;;;;;7.05;3.78;;;;;;;22.92;34.70;100408.69;4426769;32;34225;-83
2021/09/05 08:12:03;;;;;;;5.35;3.22;;;;;;;22.99;33.43;100416.09;4422722;32;34002;-82
2021/09/05 08:14:32;;;;;;;7.15;3.30;;;;;;;22.93;34.07;100415.75;4417571;32;33200;-82
2021/09/05 08:17:00;;;;;;;7.37;3.50;;;;;;;22.69;34.11;100419.56;4414791;32;32949;-83
2021/09/05 08:19:28;;;;;;;6.28;3.80;;;;;;;23.18;32.63;100410.00;4423144;32;32846;-83
2021/09/05 08:21:56;;;;;;;5.55;3.47;;;;;;;22.85;34.39;100419.09;4416963;32;34146;-83
2021/09/05 08:24:24;;;;;;;5.45;3.40;;;;;;;23.10;33.86;100417.03;4413295;32;33795;-83
2021/09/05 08:26:51;;;;;;;4.72;4.05;;;;;;;23.41;33.24;100404.44;4416920;32;34923;-83
2021/09/05 08:29:19;;;;;;;5.53;2.92;;;;;;;23.55;32.68;100412.16;4433688;32;33956;-83
2021/09/05 08:31:47;;;;;;;4.12;2.92;;;;;;;23.22;32.51;100419.53;4416547;32;33701;-83
2021/09/05 08:34:15;;;;;;;4.35;3.10;;;;;;;23.65;32.49;100420.31;4414887;32;33654;-83
2021/09/05 08:36:42;;;;;;;6.10;3.55;;;;;;;23.31;32.86;100415.16;4425402;32;34682;-81
2021/09/05 08:39:10;;;;;;;5.82;3.45;;;;;;;23.42;32.53;100428.56;4426312;32;33612;-80
2021/09/05 08:41:38;;;;;;;5.93;3.47;;;;;;;23.30;33.23;100426.06;4404188;32;33599;-81
2021/09/05 08:44:06;;;;;;;6.05;3.50;;;;;;;23.29;32.95;100432.44;4411376;32;33399;-80
2021/09/05 08:46:39;;;;;;;10.27;3.87;;;;;;;23.22;32.91;100430.28;4431454;32;33992;-81
2021/09/05 08:49:06;;;;;;;6.10;3.65;;;;;;;23.38;32.96;100426.25;4410252;32;33238;-82
2021/09/05 08:51:34;;;;;;;5.62;3.75;;;;;;;23.36;32.97;100428.22;4414607;32;34446;-82
2021/09/05 08:54:02;;;;;;;5.82;3.95;;;;;;;23.05;33.54;100441.66;4426170;32;33431;-82
2021/09/05 08:56:29;;;;;;;5.22;3.70;;;;;;;23.19;35.94;100437.78;4432684;32;34058;-82
2021/09/05 08:59:02;;;;;;;5.20;3.55;;;;;;;23.54;34.43;100426.59;4413472;32;33593;-83
2021/09/05 09:01:30;;;;;;;5.28;3.72;;;;;;;23.56;33.04;100432.72;4423159;32;34487;-82
2021/09/05 09:04:10;;;;;;;5.25;3.67;;;;;;;23.85;33.61;100430.19;4403779;32;34011;-82
2021/09/05 09:06:40;;;;;;;5.60;2.80;;;;;;;24.35;32.28;100429.28;4422887;32;34002;-82
2021/09/05 09:09:09;;;;;;;4.95;3.15;;;;;;;24.17;32.75;100424.59;4427529;32;34066;-82
2021/09/05 09:11:49;;;;;;;5.87;4.03;;;;;;;24.44;31.48;100425.78;4428885;32;33831;-82
2021/09/05 09:14:17;;;;;;;5.15;3.62;;;;;;;24.11;32.54;100424.28;4432340;32;33586;-85
2021/09/05 09:16:46;;;;;;;5.72;3.42;;;;;;;24.51;32.85;100424.22;4427798;32;35137;-82
2021/09/05 09:19:25;;;;;;;4.40;3.10;;;;;;;24.81;31.72;100417.81;4429278;32;34719;-82
2021/09/05 09:21:53;;;;;;;5.45;3.70;;;;;;;24.30;31.69;100426.16;4431395;32;34614;-82
2021/09/05 09:24:22;;;;;;;5.15;3.80;;;;;;;24.42;31.43;100425.06;4413907;32;34069;-82
2021/09/05 09:27:03;;;;;;;4.55;3.60;;;;;;;24.35;32.27;100427.44;4419918;32;34193;-83
2021/09/05 09:29:35;;;;;;;6.68;4.10;;;;;;;24.89;32.57;100419.81;4417035;32;34095;-82
2021/09/05 09:32:07;;;;;;;6.37;3.75;;;;;;;24.80;32.24;100426.06;4404068;32;33282;-82
2021/09/05 09:34:43;;;;;;;6.32;3.83;;;;;;;24.94;32.47;100426.47;4414410;32;33062;-82
2021/09/05 09:37:16;;;;;;;5.28;3.75;;;;;;;24.90;30.80;100416.97;4417239;32;34118;-82
2021/09/05 09:39:59;;;;;;;5.53;3.45;;;;;;;25.00;31.22;100422.34;4406554;32;34016;-83
2021/09/05 09:42:37;;;;;;;8.77;4.05;;;;;;;25.48;31.58;100411.44;4408805;32;33373;-82
2021/09/05 09:45:16;;;;;;;4.70;3.78;;;;;;;25.35;30.54;100416.31;4429981;32;34146;-83
2021/09/05 09:47:46;;;;;;;5.32;3.35;;;;;;;25.25;32.17;100416.34;4425210;32;33694;-82
2021/09/05 09:50:16;;;;;;;7.10;4.22;;;;;;;25.29;30.70;100425.84;4415675;32;33114;-83
2021/09/05 09:52:44;;;;;;;7.70;4.30;;;;;;;24.99;30.58;100420.66;4434210;32;32965;-82
2021/09/05 09:55:12;;;;;;;6.97;4.12;;;;;;;25.27;31.37;100414.34;4418469;32;33207;-83
2021/09/05 09:57:40;;;;;;;4.65;3.40;;;;;;;25.67;31.51;100413.19;4405210;32;33446;-82
2021/09/05 10:00:09;;;;;;;9.18;3.90;;;;;;;25.38;30.27;100415.19;4407720;32;34347;-82
2021/09/05 10:02:43;;;;;;;7.40;3.70;;;;;;;25.36;30.79;100409.94;4418175;32;34567;-82
2021/09/05 10:05:13;;;;;;;4.18;3.35;;;;;;;25.35;30.69;100410.91;4425693;32;33477;-82
2021/09/05 10:07:41;;;;;;;7.62;3.83;;;;;;;25.68;30.54;100405.94;4405045;32;32886;-82
2021/09/05 10:10:11;;;;;;;5.03;3.55;;;;;;;25.55;33.30;100406.28;4416584;32;33822;-82
2021/09/05 10:12:40;;;;;;;4.47;3.33;;;;;;;25.57;30.10;100404.28;4434812;32;34209;-82
2021/09/05 10:15:09;;;;;;;9.65;3.65;;;;;;;25.68;29.80;100400.53;4432070;32;34291;-82
2021/09/05 10:17:38;;;;;;;6.43;3.83;;;;;;;25.65;29.87;100407.09;4435390;32;34026;-83
2021/09/05 10:20:06;;;;;;;5.22;3.62;;;;;;;25.48;30.64;100405.19;4434006;32;33203;-82
2021/09/05 10:22:34;;;;;;;4.78;3.45;;;;;;;25.49;30.12;100401.47;4429091;32;33450;-83
2021/09/05 10:25:04;;;;;;;5.50;4.07;;;;;;;25.67;29.88;100407.78;4430259;32;33476;-83
2021/09/05 10:27:48;;;;;;;6.62;3.47;;;;;;;26.30;30.11;100399.78;4417131;32;33092;-82
2021/09/05 10:30:23;;;;;;;8.27;3.75;;;;;;;25.83;29.47;100404.50;4404757;32;33356;-82
2021/09/05 10:32:57;;;;;;;4.62;3.33;;;;;;;26.41;28.97;100397.84;4418665;32;34018;-84
2021/09/05 10:35:25;;;;;;;4.90;3.45;;;;;;;26.33;30.44;100397.75;4434692;32;34656;-82
2021/09/05 10:38:08;;;;;;;6.68;4.05;;;;;;;26.37;28.74;100402.69;4432551;32;33911;-83
2021/09/05 10:40:40;;;;;;;6.80;4.07;;;;;;;26.13;31.13;100406.00;4432182;32;33585;-83
2021/09/05 10:43:08;;;;;;;10.15;3.85;;;;;;;26.35;30.52;100403.84;4433288;32;34836;-83
2021/09/05 10:45:37;;;;;;;4.53;3.45;;;;;;;26.65;28.90;100399.94;4416236;32;33434;-82
2021/09/05 10:48:31;;;;;;;7.18;3.78;;;;;;;26.72;31.98;100399.16;4414740;32;33981;-84
2021/09/05 10:51:16;;;;;;;5.95;4.37;;;;;;;26.66;30.63;100402.50;4420692;32;34065;-83
2021/09/05 10:53:54;;;;;;;5.55;3.67;;;;;;;26.95;28.10;100406.78;4416641;32;34342;-83
2021/09/05 10:56:32;;;;;;;8.57;4.05;;;;;;;26.96;28.96;100398.47;4434683;32;33513;-83
2021/09/05 10:59:22;;;;;;;4.78;3.78;;;;;;;27.45;27.41;100393.44;4418594;32;33645;-83
2021/09/05 11:01:49;;;;;;;6.32;4.22;;;;;;;27.17;28.06;100395.47;4417153;32;33668;-83
2021/09/05 11:04:20;;;;;;;6.57;4.28;;;;;;;27.48;29.51;100397.66;4431606;32;33828;-83
2021/09/05 11:07:05;;;;;;;7.30;3.65;;;;;;;27.56;26.84;100392.28;4419455;32;34040;-83
2021/09/05 11:09:34;;;;;;;6.60;3.60;;;;;;;27.26;29.14;100389.09;4435149;32;33597;-83
2021/09/05 11:12:11;;;;;;;5.07;3.58;;;;;;;27.26;28.30;100394.50;4432104;32;34129;-83
2021/09/05 11:14:49;;;;;;;4.28;3.60;;;;;;;27.57;27.09;100391.25;4430522;32;33891;-83
2021/09/05 11:17:19;;;;;;;5.87;4.35;;;;;;;27.59;27.95;100386.53;4430231;32;33484;-83
2021/09/05 11:19:55;;;;;;;5.50;4.15;;;;;;;27.56;27.40;100393.13;4420858;32;33905;-83
2021/09/05 11:22:24;;;;;;;5.45;3.65;;;;;;;27.40;27.60;100389.50;4428110;32;33962;-83
2021/09/05 11:25:11;;;;;;;4.97;3.53;;;;;;;27.38;29.30;100396.94;4421677;32;33914;-83
2021/09/05 11:27:52;;;;;;;5.45;3.60;;;;;;;27.46;28.93;100391.56;4422778;32;32262;-83
2021/09/05 11:30:21;;;;;;;4.60;3.55;;;;;;;27.74;28.07;100384.94;4432315;32;33451;-84
2021/09/05 11:33:00;;;;;;;6.65;3.97;;;;;;;27.70;27.00;100375.38;4401010;32;33971;-83